createdAt,value
2022-11-25T00:00:26.055Z,95458.6
2022-11-25T00:01:27.981Z,95457.2
2022-11-25T00:02:30.460Z,95454.7
2022-11-25T00:03:33.558Z,95458.1
2022-11-25T00:04:37.702Z,95454.4
2022-11-25T00:05:40.320Z,95459.3
2022-11-25T00:06:42.810Z,95451.3
2022-11-25T00:07:44.941Z,95455.1
2022-11-25T00:08:47.383Z,95458.7
2022-11-25T00:09:49.885Z,95460.7
2022-11-25T00:10:52.389Z,95457.7
2022-11-25T00:11:54.643Z,95454
2022-11-25T00:12:57.137Z,95454.2
2022-11-25T00:13:59.337Z,95452.1
2022-11-25T00:15:01.844Z,95453.8
2022-11-25T00:16:04.641Z,95455
2022-11-25T00:17:07.596Z,95450.2
2022-11-25T00:18:10.180Z,95447.9
2022-11-25T00:19:12.662Z,95446.3
2022-11-25T00:20:15.127Z,95448
2022-11-25T00:21:17.611Z,95451.5
2022-11-25T00:22:20.075Z,95446.6
2022-11-25T00:23:22.554Z,95447.2
2022-11-25T00:24:24.769Z,95454.2
2022-11-25T00:25:26.976Z,95453.7
2022-11-25T00:26:29.444Z,95449.1
2022-11-25T00:27:31.698Z,95448.1
2022-11-25T00:28:34.196Z,95449.2
2022-11-25T00:29:36.416Z,95450.3
2022-11-25T00:30:38.605Z,95446.5
2022-11-25T00:31:41.097Z,95447.5
2022-11-25T00:32:43.716Z,95447.8
2022-11-25T00:33:46.204Z,95445.7
2022-11-25T00:34:48.159Z,95451.5
2022-11-25T00:35:50.639Z,95451.8
2022-11-25T00:36:53.120Z,95451.6
2022-11-25T00:37:55.344Z,95453.9
2022-11-25T00:38:57.828Z,95450.5
2022-11-25T00:39:59.753Z,95453.8
2022-11-25T00:41:02.226Z,95453
2022-11-25T00:42:04.447Z,95454.9
2022-11-25T00:43:06.853Z,95452.5
2022-11-25T00:44:09.065Z,95452.8
2022-11-25T00:45:11.553Z,95453.3
2022-11-25T00:46:14.368Z,95449.7
2022-11-25T00:47:16.780Z,95453.1
2022-11-25T00:48:19.027Z,95455.8
2022-11-25T00:49:21.534Z,95458.5
2022-11-25T00:50:24.008Z,95458.5
2022-11-25T00:51:25.940Z,95458.5
2022-11-25T00:52:28.130Z,95455.8
2022-11-25T00:53:30.617Z,95452.8
2022-11-25T00:54:33.153Z,95453.3
2022-11-25T00:55:36.258Z,95455
2022-11-25T00:56:38.453Z,95451
2022-11-25T00:57:40.660Z,95453.2
2022-11-25T00:58:42.889Z,95448.1
2022-11-25T00:59:45.411Z,95452.8
2022-11-25T01:00:47.796Z,95450.5
2022-11-25T01:01:50.621Z,95448.5
2022-11-25T01:02:53.193Z,95453
2022-11-25T01:03:55.700Z,95450
2022-11-25T01:04:57.919Z,95448.6
2022-11-25T01:06:00.426Z,95444.7
2022-11-25T01:07:02.620Z,95445.2
2022-11-25T01:08:05.142Z,95445
2022-11-25T01:09:07.340Z,95447.4
2022-11-25T01:10:09.555Z,95441.9
2022-11-25T01:11:12.018Z,95437.4
2022-11-25T01:12:15.261Z,95432.1
2022-11-25T01:13:17.730Z,95436.9
2022-11-25T01:14:19.983Z,95431.2
2022-11-25T01:15:21.941Z,95432.2
2022-11-25T01:16:24.794Z,95432.8
2022-11-25T01:17:27.110Z,95437.3
2022-11-25T01:18:29.616Z,95430.9
2022-11-25T01:19:32.109Z,95435.1
2022-11-25T01:20:34.605Z,95431.5
2022-11-25T01:21:37.100Z,95430.4
2022-11-25T01:22:39.304Z,95434
2022-11-25T01:23:41.499Z,95431.1
2022-11-25T01:24:43.416Z,95435.4
2022-11-25T01:25:45.903Z,95435.6
2022-11-25T01:26:48.371Z,95438.9
2022-11-25T01:27:50.569Z,95434.4
2022-11-25T01:28:52.777Z,95443.5
2022-11-25T01:29:55.308Z,95446.7
2022-11-25T01:30:57.577Z,95448
2022-11-25T01:32:00.083Z,95444.9
2022-11-25T01:33:02.748Z,95443.6
2022-11-25T01:34:05.227Z,95443.4
2022-11-25T01:35:07.718Z,95442.6
2022-11-25T01:36:10.213Z,95443.7
2022-11-25T01:37:12.694Z,95445.9
2022-11-25T01:38:15.178Z,95444.5
2022-11-25T01:39:17.385Z,95435
2022-11-25T01:40:19.865Z,95440.7
2022-11-25T01:41:22.341Z,95443.1
2022-11-25T01:42:24.822Z,95441.5
2022-11-25T01:43:27.323Z,95443.6
2022-11-25T01:44:29.801Z,95440.6
2022-11-25T01:45:32.244Z,95438.4
2022-11-25T01:46:34.524Z,95433.8
2022-11-25T01:47:36.996Z,95437.3
2022-11-25T01:48:38.941Z,95440.6
2022-11-25T01:49:41.411Z,95441.8
2022-11-25T01:50:43.917Z,95438.3
2022-11-25T01:51:46.409Z,95440.8
2022-11-25T01:52:48.889Z,95440
2022-11-25T01:53:51.070Z,95437
2022-11-25T01:54:53.557Z,95437.5
2022-11-25T01:55:56.068Z,95439.5
2022-11-25T01:56:58.549Z,95437.2
2022-11-25T01:58:00.749Z,95434.5
2022-11-25T01:59:02.954Z,95432.7
2022-11-25T02:00:05.198Z,95431.6
2022-11-25T02:01:07.794Z,95432.2
2022-11-25T02:02:10.551Z,95432
2022-11-25T02:03:13.112Z,95423.1
2022-11-25T02:04:15.576Z,95425.6
2022-11-25T02:05:18.058Z,95428.8
2022-11-25T02:06:20.272Z,95423.2
2022-11-25T02:07:23.063Z,95425.5
2022-11-25T02:08:25.611Z,95421.1
2022-11-25T02:09:28.209Z,95425.3
2022-11-25T02:10:30.687Z,95423.1
2022-11-25T02:11:32.891Z,95424.3
2022-11-25T02:12:35.082Z,95423.9
2022-11-25T02:13:37.573Z,95426.7
2022-11-25T02:14:40.242Z,95426.9
2022-11-25T02:15:42.737Z,95420.3
2022-11-25T02:16:45.250Z,95423.9
2022-11-25T02:17:48.127Z,95421.8
2022-11-25T02:18:50.613Z,95418.8
2022-11-25T02:19:52.805Z,95418.3
2022-11-25T02:20:55.276Z,95418.1
2022-11-25T02:21:57.765Z,95420.6
2022-11-25T02:23:00.261Z,95421.9
2022-11-25T02:24:02.453Z,95425.8
2022-11-25T02:25:04.961Z,95423.3
2022-11-25T02:26:07.423Z,95422.4
2022-11-25T02:27:09.906Z,95421.6
2022-11-25T02:28:12.382Z,95419.3
2022-11-25T02:29:14.877Z,95419.8
2022-11-25T02:30:17.349Z,95416.8
2022-11-25T02:31:20.043Z,95416
2022-11-25T02:32:22.439Z,95414.3
2022-11-25T02:33:24.948Z,95422.5
2022-11-25T02:34:27.408Z,95416.2
2022-11-25T02:35:29.887Z,95416.8
2022-11-25T02:36:31.855Z,95423.3
2022-11-25T02:37:34.355Z,95424.7
2022-11-25T02:38:36.844Z,95424.4
2022-11-25T02:39:39.044Z,95428.3
2022-11-25T02:40:41.261Z,95428.5
2022-11-25T02:41:43.451Z,95429.6
2022-11-25T02:42:45.920Z,95429.1
2022-11-25T02:43:47.856Z,95425.5
2022-11-25T02:44:50.316Z,95425.3
2022-11-25T02:45:53.187Z,95422.3
2022-11-25T02:46:55.550Z,95427.9
2022-11-25T02:47:58.075Z,95422.1
2022-11-25T02:50:05.556Z,95425.5
2022-11-25T02:51:07.758Z,95425.9
2022-11-25T02:52:09.687Z,95425.7
2022-11-25T02:53:12.196Z,95427.4
2022-11-25T02:54:14.695Z,95429.1
2022-11-25T02:55:16.908Z,95432.8
2022-11-25T02:56:19.393Z,95434.6
2022-11-25T02:57:21.884Z,95439
2022-11-25T02:58:24.352Z,95438.1
2022-11-25T02:59:26.826Z,95438.9
2022-11-25T03:00:29.022Z,95438.5
2022-11-25T03:01:31.878Z,95434.5
2022-11-25T03:02:34.402Z,95434.8
2022-11-25T03:03:37.023Z,95429.4
2022-11-25T03:04:39.991Z,95431.1
2022-11-25T03:05:42.198Z,95423.7
2022-11-25T03:06:44.672Z,95430.2
2022-11-25T03:07:47.211Z,95432.5
2022-11-25T03:08:49.814Z,95427.1
2022-11-25T03:09:51.741Z,95422.4
2022-11-25T03:10:54.213Z,95420.7
2022-11-25T03:11:56.425Z,95415.7
2022-11-25T03:12:58.930Z,95421
2022-11-25T03:14:01.422Z,95412.7
2022-11-25T03:15:03.634Z,95417.9
2022-11-25T03:16:06.549Z,95421.2
2022-11-25T03:17:09.117Z,95423.9
2022-11-25T03:18:11.619Z,95420.7
2022-11-25T03:19:14.137Z,95419.8
2022-11-25T03:20:16.353Z,95416.4
2022-11-25T03:21:18.827Z,95420.5
2022-11-25T03:22:21.039Z,95426.4
2022-11-25T03:23:23.245Z,95422.6
2022-11-25T03:24:25.464Z,95427.4
2022-11-25T03:25:27.683Z,95425.2
2022-11-25T03:26:30.192Z,95424.4
2022-11-25T03:27:31.548Z,95418.3
2022-11-25T03:28:34.033Z,95417.9
2022-11-25T03:29:36.228Z,95424
2022-11-25T03:30:38.708Z,95423.6
2022-11-25T03:31:41.440Z,95422.9
2022-11-25T03:32:43.791Z,95422.4
2022-11-25T03:33:46.262Z,95429.5
2022-11-25T03:34:48.808Z,95423.3
2022-11-25T03:35:51.312Z,95424.5
2022-11-25T03:36:53.296Z,95425.5
2022-11-25T03:37:55.865Z,95426.8
2022-11-25T03:38:58.348Z,95430.1
2022-11-25T03:40:00.833Z,95425.7
2022-11-25T03:41:03.082Z,95428
2022-11-25T03:42:05.272Z,95419.5
2022-11-25T03:43:07.752Z,95420.8
2022-11-25T03:44:10.235Z,95417.8
2022-11-25T03:45:12.770Z,95421.2
2022-11-25T03:46:15.219Z,95421.7
2022-11-25T03:47:17.551Z,95417.6
2022-11-25T03:48:20.052Z,95417.2
2022-11-25T03:49:22.520Z,95419.8
2022-11-25T03:50:24.495Z,95427
2022-11-25T03:51:27.005Z,95437.3
2022-11-25T03:52:29.479Z,95436.4
2022-11-25T03:53:31.409Z,95436.2
2022-11-25T03:54:34.522Z,95436.1
2022-11-25T03:55:37.514Z,95437.5
2022-11-25T03:56:40.014Z,95437.7
2022-11-25T03:57:42.549Z,95438.2
2022-11-25T03:58:45.068Z,95434.3
2022-11-25T03:59:47.530Z,95434.8
2022-11-25T04:00:50.035Z,95433.3
2022-11-25T04:01:52.532Z,95435.7
2022-11-25T04:02:55.485Z,95435.3
2022-11-25T04:03:57.955Z,95437.7
2022-11-25T04:05:00.174Z,95438
2022-11-25T04:06:03.046Z,95436.6
2022-11-25T04:07:05.627Z,95434.4
2022-11-25T04:08:08.193Z,95438.9
2022-11-25T04:09:10.459Z,95439.3
2022-11-25T04:10:12.939Z,95442.4
2022-11-25T04:11:15.456Z,95438.9
2022-11-25T04:12:17.943Z,95438.8
2022-11-25T04:13:20.150Z,95440.1
2022-11-25T04:14:22.625Z,95444.2
2022-11-25T04:15:24.826Z,95440.9
2022-11-25T04:16:27.569Z,95446.7
2022-11-25T04:17:30.118Z,95437.7
2022-11-25T04:18:32.595Z,95435.2
2022-11-25T04:19:34.799Z,95437
2022-11-25T04:20:36.719Z,95437
2022-11-25T04:21:39.253Z,95437.8
2022-11-25T04:22:41.741Z,95438.2
2022-11-25T04:23:44.223Z,95441.2
2022-11-25T04:24:46.701Z,95442.5
2022-11-25T04:25:49.211Z,95440.2
2022-11-25T04:26:51.712Z,95449.5
2022-11-25T04:27:53.945Z,95450
2022-11-25T04:28:56.411Z,95451.8
2022-11-25T04:29:58.934Z,95456.5
2022-11-25T04:31:01.628Z,95457
2022-11-25T04:32:04.288Z,95456.4
2022-11-25T04:33:06.534Z,95457.4
2022-11-25T04:34:09.018Z,95452.8
2022-11-25T04:35:10.654Z,95453.1
2022-11-25T04:36:13.120Z,95449.4
2022-11-25T04:37:15.372Z,95451.4
2022-11-25T04:38:17.856Z,95452.8
2022-11-25T04:39:20.338Z,95453.3
2022-11-25T04:40:22.256Z,95451.1
2022-11-25T04:41:24.472Z,95454.8
2022-11-25T04:42:26.987Z,95453.6
2022-11-25T04:43:29.208Z,95453.2
2022-11-25T04:44:31.428Z,95455.5
2022-11-25T04:46:39.189Z,95457.7
2022-11-25T04:47:41.810Z,95457.2
2022-11-25T04:48:44.011Z,95455.5
2022-11-25T04:49:46.222Z,95454.6
2022-11-25T04:50:48.702Z,95455.3
2022-11-25T04:51:50.911Z,95459.3
2022-11-25T04:52:53.440Z,95458.5
2022-11-25T04:53:55.946Z,95449.7
2022-11-25T04:54:58.422Z,95453.4
2022-11-25T04:56:00.351Z,95444.9
2022-11-25T04:57:02.903Z,95447.1
2022-11-25T04:58:05.134Z,95445.2
2022-11-25T04:59:07.617Z,95443.7
2022-11-25T05:00:09.525Z,95440.8
2022-11-25T05:01:12.038Z,95437.1
2022-11-25T05:02:14.773Z,95442.4
2022-11-25T05:03:17.345Z,95443.2
2022-11-25T05:04:19.536Z,95446.6
2022-11-25T05:05:21.752Z,95445.3
2022-11-25T05:06:23.957Z,95447.8
2022-11-25T05:07:26.752Z,95456.3
2022-11-25T05:08:29.432Z,95456.5
2022-11-25T05:09:31.648Z,95459.9
2022-11-25T05:10:33.861Z,95453.8
2022-11-25T05:11:36.327Z,95455.4
2022-11-25T05:12:38.542Z,95455.9
2022-11-25T05:13:40.732Z,95457.6
2022-11-25T05:14:43.234Z,95454.1
2022-11-25T05:15:45.760Z,95456.7
2022-11-25T05:16:48.288Z,95453
2022-11-25T05:17:50.603Z,95450.8
2022-11-25T05:18:52.806Z,95445.9
2022-11-25T05:19:54.608Z,95449.3
2022-11-25T05:20:57.098Z,95444.3
2022-11-25T05:21:59.288Z,95448.6
2022-11-25T05:23:01.784Z,95449.1
2022-11-25T05:24:04.025Z,95454
2022-11-25T05:25:06.538Z,95452.5
2022-11-25T05:26:09.006Z,95450.3
2022-11-25T05:27:11.487Z,95451.3
2022-11-25T05:28:13.680Z,95452.8
2022-11-25T05:29:16.178Z,95449.8
2022-11-25T05:30:18.686Z,95452.7
2022-11-25T05:31:20.889Z,95458.9
2022-11-25T05:32:23.590Z,95460.6
2022-11-25T05:33:25.504Z,95460.5
2022-11-25T05:34:27.970Z,95456.5
2022-11-25T05:35:30.473Z,95456.5
2022-11-25T05:36:32.974Z,95452.4
2022-11-25T05:37:35.475Z,95451.3
2022-11-25T05:38:37.406Z,95452.2
2022-11-25T05:39:39.980Z,95448.3
2022-11-25T05:40:42.489Z,95448
2022-11-25T05:41:44.776Z,95447.5
2022-11-25T05:42:47.346Z,95442.7
2022-11-25T05:43:49.836Z,95449.5
2022-11-25T05:44:52.352Z,95451.3
2022-11-25T05:45:55.125Z,95451.7
2022-11-25T05:46:57.698Z,95455.8
2022-11-25T05:48:00.176Z,95458.8
2022-11-25T05:49:02.649Z,95468.1
2022-11-25T05:50:05.132Z,95467.7
2022-11-25T05:51:07.070Z,95474.5
2022-11-25T05:52:09.652Z,95474.1
2022-11-25T05:53:11.932Z,95479.8
2022-11-25T05:54:14.392Z,95482.1
2022-11-25T05:55:16.662Z,95481.6
2022-11-25T05:56:19.141Z,95481.8
2022-11-25T05:57:21.627Z,95486.5
2022-11-25T05:58:23.669Z,95480
2022-11-25T05:59:26.149Z,95481.3
2022-11-25T06:00:28.572Z,95483.1
2022-11-25T06:01:31.088Z,95483.4
2022-11-25T06:02:33.794Z,95478.1
2022-11-25T06:03:36.500Z,95479.8
2022-11-25T06:04:40.004Z,95480.3
2022-11-25T06:05:42.493Z,95482.4
2022-11-25T06:06:44.430Z,95480.5
2022-11-25T06:07:47.092Z,95477.5
2022-11-25T06:08:49.433Z,95473.9
2022-11-25T06:09:51.385Z,95473.7
2022-11-25T06:10:53.944Z,95471.7
2022-11-25T06:11:56.507Z,95465.4
2022-11-25T06:12:58.978Z,95468.2
2022-11-25T06:14:01.204Z,95468.7
2022-11-25T06:15:03.683Z,95473.4
2022-11-25T06:17:11.183Z,95469
2022-11-25T06:18:13.099Z,95470.1
2022-11-25T06:19:15.022Z,95469
2022-11-25T06:20:17.505Z,95469.8
2022-11-25T06:21:19.699Z,95469.8
2022-11-25T06:22:22.189Z,95466.8
2022-11-25T06:23:24.651Z,95457.5
2022-11-25T06:24:26.846Z,95457.6
2022-11-25T06:25:28.769Z,95456.9
2022-11-25T06:26:31.026Z,95463.1
2022-11-25T06:28:38.221Z,95462.8
2022-11-25T06:29:40.175Z,95466.5
2022-11-25T06:30:42.390Z,95466.1
2022-11-25T06:31:44.816Z,95467.7
2022-11-25T06:32:47.335Z,95470.8
2022-11-25T06:33:49.548Z,95467.6
2022-11-25T06:34:51.797Z,95467.3
2022-11-25T06:35:53.981Z,95468.3
2022-11-25T06:36:56.181Z,95469.9
2022-11-25T06:37:58.658Z,95466.7
2022-11-25T06:39:00.863Z,95469.6
2022-11-25T06:40:03.341Z,95473.9
2022-11-25T06:41:05.801Z,95478.1
2022-11-25T06:42:08.041Z,95477.9
2022-11-25T06:43:10.520Z,95478.6
2022-11-25T06:44:12.731Z,95484.3
2022-11-25T06:45:15.216Z,95483.2
2022-11-25T06:47:22.679Z,95482.8
2022-11-25T06:48:24.931Z,95482.6
2022-11-25T06:49:27.123Z,95478
2022-11-25T06:50:29.345Z,95474.7
2022-11-25T06:51:31.545Z,95473.1
2022-11-25T06:52:33.484Z,95471.7
2022-11-25T06:53:35.156Z,95468.4
2022-11-25T06:54:38.406Z,95472.1
2022-11-25T06:55:40.875Z,95472.8
2022-11-25T06:56:43.085Z,95473.5
2022-11-25T06:57:45.337Z,95473.5
2022-11-25T06:58:47.838Z,95478.2
2022-11-25T06:59:50.314Z,95474.3
2022-11-25T07:00:52.532Z,95473.1
2022-11-25T07:01:55.297Z,95475.5
2022-11-25T07:02:57.879Z,95480.9
2022-11-25T07:04:00.189Z,95481.7
2022-11-25T07:05:02.705Z,95483.8
2022-11-25T07:06:04.975Z,95480.5
2022-11-25T07:07:06.900Z,95478.4
2022-11-25T07:08:09.371Z,95485.8
2022-11-25T07:09:11.865Z,95487.6
2022-11-25T07:10:14.060Z,95487
2022-11-25T07:11:16.542Z,95486.3
2022-11-25T07:12:19.020Z,95487.6
2022-11-25T07:13:21.255Z,95487.4
2022-11-25T07:14:23.473Z,95487
2022-11-25T07:15:25.956Z,95484.5
2022-11-25T07:16:28.900Z,95484.2
2022-11-25T07:17:31.221Z,95489.4
2022-11-25T07:18:33.731Z,95484
2022-11-25T07:19:35.982Z,95488.4
2022-11-25T07:20:37.631Z,95484
2022-11-25T07:21:40.106Z,95477.8
2022-11-25T07:22:42.583Z,95481.6
2022-11-25T07:23:44.783Z,95480.2
2022-11-25T07:24:47.414Z,95480.6
2022-11-25T07:25:49.348Z,95485.5
2022-11-25T07:26:51.570Z,95488.4
2022-11-25T07:27:53.768Z,95487.3
2022-11-25T07:28:56.336Z,95484
2022-11-25T07:33:13.827Z,95481.6
2022-11-25T07:34:16.135Z,95488.3
2022-11-25T07:35:18.384Z,95487.5
2022-11-25T07:36:20.573Z,95486.4
2022-11-25T07:37:23.058Z,95488
2022-11-25T07:38:25.553Z,95489.6
2022-11-25T07:39:28.032Z,95491.4
2022-11-25T07:40:30.517Z,95490.3
2022-11-25T07:41:32.993Z,95487
2022-11-25T07:42:35.174Z,95492.7
2022-11-25T07:43:37.655Z,95492.7
2022-11-25T07:44:40.190Z,95493
2022-11-25T07:45:42.679Z,95494.3
2022-11-25T07:46:45.380Z,95493.8
2022-11-25T07:47:47.518Z,95495.9
2022-11-25T07:48:49.459Z,95497.2
2022-11-25T07:49:51.951Z,95497.4
2022-11-25T07:50:54.476Z,95495.4
2022-11-25T07:51:56.401Z,95498.4
2022-11-25T07:52:58.888Z,95503.9
2022-11-25T07:54:01.377Z,95510.9
2022-11-25T07:55:03.575Z,95506.5
2022-11-25T07:56:05.769Z,95511.2
2022-11-25T07:57:07.977Z,95517
2022-11-25T07:58:10.462Z,95513.8
2022-11-25T07:59:12.668Z,95513.5
2022-11-25T08:00:14.929Z,95511.6
2022-11-25T08:01:17.519Z,95511.8
2022-11-25T08:02:19.895Z,95510.9
2022-11-25T08:03:22.796Z,95509.8
2022-11-25T08:04:25.170Z,95508.3
2022-11-25T08:05:27.653Z,95513.1
2022-11-25T08:06:29.886Z,95507.1
2022-11-25T08:08:37.089Z,95506.6
2022-11-25T08:09:40.529Z,95506.9
2022-11-25T08:10:42.761Z,95503.4
2022-11-25T08:11:44.983Z,95507.8
2022-11-25T08:12:47.214Z,95497.4
2022-11-25T08:13:49.463Z,95496.6
2022-11-25T08:14:51.656Z,95493.6
2022-11-25T08:15:53.912Z,95493.1
2022-11-25T08:16:56.289Z,95493.5
2022-11-25T08:17:58.804Z,95495.5
2022-11-25T08:19:01.290Z,95494.5
2022-11-25T08:20:03.515Z,95494
2022-11-25T08:21:06.003Z,95496.1
2022-11-25T08:22:08.546Z,95496.4
2022-11-25T08:23:10.771Z,95499
2022-11-25T08:24:12.965Z,95497.5
2022-11-25T08:25:15.181Z,95494.8
2022-11-25T08:26:17.678Z,95497.5
2022-11-25T08:27:19.581Z,95498.3
2022-11-25T08:28:21.227Z,95494.9
2022-11-25T08:29:23.153Z,95500.8
2022-11-25T08:30:25.968Z,95497
2022-11-25T08:31:28.325Z,95497.6
2022-11-25T08:32:30.999Z,95492.6
2022-11-25T08:33:33.495Z,95496.7
2022-11-25T08:34:35.740Z,95495.2
2022-11-25T08:35:37.970Z,95501.2
2022-11-25T08:37:45.561Z,95507.2
2022-11-25T08:38:48.063Z,95508.2
2022-11-25T08:40:54.967Z,95516.4
2022-11-25T08:41:57.475Z,95511.6
2022-11-25T08:42:59.992Z,95523.8
2022-11-25T08:44:01.904Z,95525.9
2022-11-25T08:45:04.397Z,95527.6
2022-11-25T08:46:06.852Z,95527.6
2022-11-25T08:47:09.259Z,95532.5
2022-11-25T08:48:11.507Z,95536.8
2022-11-25T08:49:13.996Z,95544.9
2022-11-25T08:50:16.225Z,95546
2022-11-25T08:51:18.157Z,95548
2022-11-25T08:52:20.348Z,95550.6
2022-11-25T08:53:22.609Z,95553.2
2022-11-25T08:54:24.807Z,95559.3
2022-11-25T08:55:27.298Z,95559.6
2022-11-25T08:56:29.515Z,95563.6
2022-11-25T08:57:31.724Z,95560.5
2022-11-25T08:58:33.943Z,95562.9
2022-11-25T08:59:38.196Z,95564.3
2022-11-25T09:00:40.977Z,95561.9
2022-11-25T09:01:43.903Z,95566.9
2022-11-25T09:02:46.820Z,95571.2
2022-11-25T09:03:49.383Z,95572.1
2022-11-25T09:04:51.905Z,95576.9
2022-11-25T09:05:54.399Z,95575.3
2022-11-25T09:06:56.606Z,95571.8
2022-11-25T09:07:59.274Z,95576.2
2022-11-25T09:09:01.802Z,95574.5
2022-11-25T09:10:03.589Z,95578.9
2022-11-25T09:11:06.094Z,95576.4
2022-11-25T09:12:08.421Z,95573.9
2022-11-25T09:13:10.672Z,95577.8
2022-11-25T09:14:13.241Z,95577.8
2022-11-25T09:15:15.635Z,95576.6
2022-11-25T09:16:18.398Z,95580.8
2022-11-25T09:17:20.968Z,95582
2022-11-25T09:18:22.966Z,95582.5
2022-11-25T09:19:25.541Z,95580.4
2022-11-25T09:20:28.024Z,95577.8
2022-11-25T09:21:29.950Z,95581
2022-11-25T09:22:32.428Z,95580.1
2022-11-25T09:23:34.640Z,95577.9
2022-11-25T09:24:36.918Z,95581.2
2022-11-25T09:25:38.877Z,95585.3
2022-11-25T09:26:41.139Z,95589.6
2022-11-25T09:27:43.669Z,95583.1
2022-11-25T09:28:45.128Z,95585.9
2022-11-25T09:29:47.370Z,95581
2022-11-25T09:30:50.180Z,95585.2
2022-11-25T09:32:57.771Z,95578.1
2022-11-25T09:34:00.329Z,95576.6
2022-11-25T09:35:02.822Z,95574.6
2022-11-25T09:36:04.530Z,95573.9
2022-11-25T09:37:07.133Z,95577.5
2022-11-25T09:38:09.914Z,95579
2022-11-25T09:39:12.405Z,95574
2022-11-25T09:40:14.716Z,95577.9
2022-11-25T09:41:16.947Z,95579.2
2022-11-25T09:42:19.470Z,95584
2022-11-25T09:43:21.984Z,95580.5
2022-11-25T09:44:24.204Z,95575.6
2022-11-25T09:45:26.403Z,95578.8
2022-11-25T09:46:28.617Z,95576.1
2022-11-25T09:47:30.929Z,95580.8
2022-11-25T09:48:33.143Z,95581
2022-11-25T09:49:37.136Z,95580.6
2022-11-25T09:50:40.243Z,95582.5
2022-11-25T09:51:42.717Z,95585.1
2022-11-25T09:52:45.249Z,95586.7
2022-11-25T09:53:47.448Z,95587.2
2022-11-25T09:54:49.957Z,95589.7
2022-11-25T09:56:58.462Z,95588.2
2022-11-25T09:58:01.245Z,95591.3
2022-11-25T09:59:03.478Z,95590.6
2022-11-25T10:00:05.707Z,95593.3
2022-11-25T10:01:07.391Z,95591.1
2022-11-25T10:02:09.896Z,95589.4
2022-11-25T10:03:12.791Z,95589.7
2022-11-25T10:04:15.383Z,95588.5
2022-11-25T10:05:17.918Z,95588.4
2022-11-25T10:06:20.500Z,95583.9
2022-11-25T10:07:22.806Z,95585.1
2022-11-25T10:08:25.030Z,95587.2
2022-11-25T10:09:27.227Z,95585.3
2022-11-25T10:10:29.451Z,95587.7
2022-11-25T10:11:31.969Z,95583.8
2022-11-25T10:12:34.468Z,95585
2022-11-25T10:13:36.700Z,95582.6
2022-11-25T10:14:39.219Z,95584.1
2022-11-25T10:15:41.980Z,95587
2022-11-25T10:17:49.545Z,95584.8
2022-11-25T10:18:51.492Z,95586.2
2022-11-25T10:19:53.407Z,95585.9
2022-11-25T10:20:55.951Z,95589.8
2022-11-25T10:21:58.194Z,95589.5
2022-11-25T10:23:00.421Z,95587.3
2022-11-25T10:24:02.635Z,95588.7
2022-11-25T10:25:05.153Z,95588.6
2022-11-25T10:26:07.644Z,95593.7
2022-11-25T10:27:09.941Z,95591.3
2022-11-25T10:28:12.156Z,95590.6
2022-11-25T10:29:14.644Z,95588.5
2022-11-25T10:30:17.117Z,95589.1
2022-11-25T10:31:19.881Z,95592.1
2022-11-25T10:32:21.935Z,95590.4
2022-11-25T10:33:24.150Z,95595.4
2022-11-25T10:34:26.092Z,95593.7
2022-11-25T10:35:28.037Z,95592.6
2022-11-25T10:36:30.301Z,95588.3
2022-11-25T10:37:32.596Z,95594.1
2022-11-25T10:38:34.803Z,95590.7
2022-11-25T10:39:37.045Z,95595.3
2022-11-25T10:40:39.540Z,95590.5
2022-11-25T10:41:41.472Z,95588.6
2022-11-25T10:42:43.738Z,95588.9
2022-11-25T10:43:45.686Z,95589.1
2022-11-25T10:44:47.628Z,95587
2022-11-25T10:45:49.843Z,95590.4
2022-11-25T10:47:57.695Z,95591.8
2022-11-25T10:48:59.939Z,95597.3
2022-11-25T10:50:02.193Z,95592.8
2022-11-25T10:51:04.713Z,95592.3
2022-11-25T10:52:07.056Z,95596.1
2022-11-25T10:53:09.588Z,95592.7
2022-11-25T10:54:11.793Z,95592.7
2022-11-25T10:55:14.016Z,95593.8
2022-11-25T10:56:16.225Z,95594
2022-11-25T10:57:18.428Z,95592.8
2022-11-25T10:58:20.955Z,95592.9
2022-11-25T10:59:23.455Z,95591.8
2022-11-25T11:00:25.629Z,95590.1
2022-11-25T11:01:28.344Z,95586.5
2022-11-25T11:02:31.263Z,95587
2022-11-25T11:03:33.290Z,95590.1
2022-11-25T11:04:37.039Z,95589.7
2022-11-25T11:06:44.854Z,95587.1
2022-11-25T11:07:47.765Z,95587.1
2022-11-25T11:08:49.827Z,95584.8
2022-11-25T11:09:51.757Z,95584.4
2022-11-25T11:11:58.948Z,95583.9
2022-11-25T11:13:01.172Z,95585.2
2022-11-25T11:14:03.718Z,95584.1
2022-11-25T11:15:06.204Z,95579.4
2022-11-25T11:16:08.648Z,95585.2
2022-11-25T11:17:10.911Z,95581.5
2022-11-25T11:18:12.855Z,95585.4
2022-11-25T11:19:15.375Z,95584.4
2022-11-25T11:20:17.730Z,95581.7
2022-11-25T11:21:20.212Z,95578.2
2022-11-25T11:22:22.118Z,95578.5
2022-11-25T11:23:24.656Z,95573.6
2022-11-25T11:24:26.873Z,95574.6
2022-11-25T11:25:29.086Z,95576.6
2022-11-25T11:26:31.562Z,95578
2022-11-25T11:27:33.774Z,95575.6
2022-11-25T11:28:36.277Z,95576
2022-11-25T11:29:38.836Z,95577.6
2022-11-25T11:30:41.063Z,95578.2
2022-11-25T11:31:43.898Z,95575.9
2022-11-25T11:32:46.493Z,95578.5
2022-11-25T11:33:48.717Z,95578.6
2022-11-25T11:34:51.205Z,95573.7
2022-11-25T11:35:53.684Z,95573.5
2022-11-25T11:36:55.886Z,95573.1
2022-11-25T11:37:58.362Z,95574.8
2022-11-25T11:39:00.589Z,95577.9
2022-11-25T11:40:02.833Z,95578.4
2022-11-25T11:41:04.740Z,95580.2
2022-11-25T11:42:07.217Z,95574.6
2022-11-25T11:43:09.695Z,95575
2022-11-25T11:44:11.954Z,95573.6
2022-11-25T11:45:14.534Z,95570.3
2022-11-25T11:46:17.287Z,95569.9
2022-11-25T11:47:19.017Z,95571.6
2022-11-25T11:48:21.506Z,95571.8
2022-11-25T11:50:28.986Z,95570.3
2022-11-25T11:51:31.838Z,95574.2
2022-11-25T11:52:34.045Z,95565.1
2022-11-25T11:53:36.253Z,95568.5
2022-11-25T11:54:39.895Z,95567.5
2022-11-25T11:55:42.399Z,95567
2022-11-25T11:56:44.324Z,95566.1
2022-11-25T11:57:46.812Z,95569.3
2022-11-25T11:58:49.013Z,95565.6
2022-11-25T11:59:51.232Z,95564.5
2022-11-25T12:00:53.493Z,95563
2022-11-25T12:01:56.113Z,95565.5
2022-11-25T12:02:58.774Z,95561.7
2022-11-25T12:04:01.484Z,95565.9
2022-11-25T12:05:03.707Z,95563.4
2022-11-25T12:06:05.921Z,95563.2
2022-11-25T12:07:08.183Z,95564
2022-11-25T12:08:10.878Z,95565.7
2022-11-25T12:09:12.800Z,95563.2
2022-11-25T12:10:15.331Z,95563.8
2022-11-25T12:11:17.574Z,95566
2022-11-25T12:12:20.074Z,95564.6
2022-11-25T12:13:22.566Z,95563.5
2022-11-25T12:14:25.051Z,95562.9
2022-11-25T12:15:27.574Z,95560.9
2022-11-25T12:16:30.450Z,95562.7
2022-11-25T12:17:33.142Z,95561.4
2022-11-25T12:18:35.638Z,95565.8
2022-11-25T12:19:37.842Z,95563.7
2022-11-25T12:20:40.332Z,95564.6
2022-11-25T12:21:43.885Z,95559.8
2022-11-25T12:22:46.071Z,95564.5
2022-11-25T12:23:48.311Z,95557.6
2022-11-25T12:24:50.533Z,95558.3
2022-11-25T12:25:52.759Z,95560.9
2022-11-25T12:26:54.987Z,95557.8
2022-11-25T12:27:57.187Z,95558
2022-11-25T12:28:59.415Z,95555.5
2022-11-25T12:30:01.898Z,95557.2
2022-11-25T12:32:09.337Z,95562.3
2022-11-25T12:33:11.842Z,95558.2
2022-11-25T12:34:14.364Z,95557.9
2022-11-25T12:35:16.895Z,95558.1
2022-11-25T12:36:19.369Z,95553.9
2022-11-25T12:37:21.334Z,95555.7
2022-11-25T12:38:23.813Z,95563.2
2022-11-25T12:39:26.044Z,95561.8
2022-11-25T12:40:28.378Z,95557.1
2022-11-25T12:41:30.652Z,95556.3
2022-11-25T12:42:33.169Z,95553.4
2022-11-25T12:43:35.722Z,95557.1
2022-11-25T12:44:39.120Z,95556.6
2022-11-25T12:45:41.756Z,95556.1
2022-11-25T12:46:44.083Z,95555.7
2022-11-25T12:47:47.133Z,95560.8
2022-11-25T12:48:49.649Z,95559.7
2022-11-25T12:49:51.850Z,95559.2
2022-11-25T12:50:53.775Z,95563.6
2022-11-25T12:51:56.263Z,95562.6
2022-11-25T12:52:58.739Z,95564.8
2022-11-25T12:54:00.954Z,95563.4
2022-11-25T12:55:03.454Z,95560.3
2022-11-25T12:56:05.672Z,95562
2022-11-25T12:57:07.952Z,95559
2022-11-25T12:58:10.213Z,95560
2022-11-25T12:59:12.956Z,95558.9
2022-11-25T13:01:20.689Z,95563